Zhong Shan Men — 3FLE6 — position and weather

sailwx.info

Track history (hours):
 
Tides and Currents Weather Stations Pressure Air Temp Water Temp Dewpoint Dewpoint Depression Visibility Wind Speed Wind Dir Waves Ship Positions

Zhong Shan Men

Last reported at 2017-May-06 09:18 UTC. Time now 2017-Jun-25 14:08 UTC.
Position N 01°13' E 103°29'.
Warning: this ship's position is 50 days out of date.

Length 189 m; draft 12 m.

Type: Cargo ship. MMSI: 351339000.

Date/timePositionNaut miles runAvg speedWind from/ knotsBaromVisibWave heightAir tempDewpointWater temp
2017-May-06 09:18N 01°13' E 103°29'413.0
2017-May-06 09:00N 01°13' E 103°33'612.6
2017-May-06 08:30N 01°11' E 103°39'612.2
2017-May-06 08:00N 01°08' E 103°44'611.8
2017-May-06 07:28N 01°11' E 103°50'611.4
2017-May-06 06:57N 01°14' E 103°55'511.7
2017-May-06 06:30N 01°15' E 104°01'  
2017-Apr-30 22:53N 23°52' E 118°20'1213.9
2017-Apr-30 22:02N 24°01' E 118°28'013.7
2017-Apr-30 22:00N 24°01' E 118°29'813.9
2017-Apr-30 21:26N 24°06' E 118°36'1813.9
2017-Apr-30 20:09N 24°14' E 118°53'313.9
2017-Apr-30 19:57N 24°16' E 118°55'613.8
2017-Apr-30 19:29N 24°20' E 119°01'  
2017-Apr-27 10:04N 38°27' E 121°09'113.8
2017-Apr-27 10:00N 38°27' E 121°08'3112.1
2017-Apr-27 07:25N 38°35' E 120°29'512.3
2017-Apr-27 07:00N 38°36' E 120°22'812.1
2017-Apr-27 06:20N 38°37' E 120°12'711.8
2017-Apr-27 05:43N 38°39' E 120°03'311.7
2017-Apr-27 05:30N 38°39' E 120°00'1211.8
2017-Apr-27 04:28N 38°40' E 119°44'611.7
2017-Apr-27 03:59N 38°41' E 119°37'611.9
2017-Apr-27 03:30N 38°42' E 119°30'2012.1
2017-Apr-27 01:50N 38°45' E 119°05'1112.8
2017-Apr-27 01:00N 38°47' E 118°51'1313.5
2017-Apr-27 00:04N 38°48' E 118°35'114.4
2017-Apr-27 00:00N 38°48' E 118°34'  
Track history (hours):
 
Tides and Currents Weather Stations Pressure Air Temp Water Temp Dewpoint Dewpoint Depression Visibility Wind Speed Wind Dir Waves Ship Positions

Zhong Shan Men

Last reported at 2017-May-06 09:18 UTC. Time now 2017-Jun-25 14:08 UTC.
Position N 01°13' E 103°29'.
Warning: this ship's position is 50 days out of date.

Length 189 m; draft 12 m.

Type: Cargo ship. MMSI: 351339000.

Date/timePositionNaut miles runAvg speedWind from/ knotsBaromVisibWave heightAir tempDewpointWater temp
2017-May-06 09:18N 01°13' E 103°29'413.0
2017-May-06 09:00N 01°13' E 103°33'612.6
2017-May-06 08:30N 01°11' E 103°39'612.2
2017-May-06 08:00N 01°08' E 103°44'611.8
2017-May-06 07:28N 01°11' E 103°50'611.4
2017-May-06 06:57N 01°14' E 103°55'511.7
2017-May-06 06:30N 01°15' E 104°01'  
2017-Apr-30 22:53N 23°52' E 118°20'1213.9
2017-Apr-30 22:02N 24°01' E 118°28'013.7
2017-Apr-30 22:00N 24°01' E 118°29'813.9
2017-Apr-30 21:26N 24°06' E 118°36'1813.9
2017-Apr-30 20:09N 24°14' E 118°53'313.9
2017-Apr-30 19:57N 24°16' E 118°55'613.8
2017-Apr-30 19:29N 24°20' E 119°01'  
2017-Apr-27 10:04N 38°27' E 121°09'113.8
2017-Apr-27 10:00N 38°27' E 121°08'3112.1
2017-Apr-27 07:25N 38°35' E 120°29'512.3
2017-Apr-27 07:00N 38°36' E 120°22'812.1
2017-Apr-27 06:20N 38°37' E 120°12'711.8
2017-Apr-27 05:43N 38°39' E 120°03'311.7
2017-Apr-27 05:30N 38°39' E 120°00'1211.8
2017-Apr-27 04:28N 38°40' E 119°44'611.7
2017-Apr-27 03:59N 38°41' E 119°37'611.9
2017-Apr-27 03:30N 38°42' E 119°30'2012.1
2017-Apr-27 01:50N 38°45' E 119°05'1112.8
2017-Apr-27 01:00N 38°47' E 118°51'1313.5
2017-Apr-27 00:04N 38°48' E 118°35'114.4
2017-Apr-27 00:00N 38°48' E 118°34'  

Dump ship's entire track history